createdAt,value
2022-09-28T00:01:24.575Z,96.38
2022-09-28T00:03:57.376Z,97.70
2022-09-28T00:06:26.437Z,98.25
2022-09-28T00:08:54.548Z,99.64
2022-09-28T00:11:23.770Z,98.20
2022-09-28T00:13:53.452Z,99.27
2022-09-28T00:16:24.051Z,100.00
2022-09-28T00:18:52.218Z,99.31
2022-09-28T00:21:24.727Z,100.00
2022-09-28T00:24:12.079Z,99.48
2022-09-28T00:26:42.297Z,98.79
2022-09-28T00:29:17.306Z,99.17
2022-09-28T00:31:45.094Z,99.35
2022-09-28T00:34:13.174Z,98.70
2022-09-28T00:36:43.899Z,98.65
2022-09-28T00:39:12.666Z,99.23
2022-09-28T00:41:40.393Z,99.47
2022-09-28T00:44:26.057Z,100.00
2022-09-28T00:47:06.296Z,99.72
2022-09-28T00:49:55.274Z,98.90
2022-09-28T00:52:35.860Z,100.00
2022-09-28T00:55:07.187Z,100.00
2022-09-28T00:57:35.786Z,98.25
2022-09-28T01:00:05.095Z,99.54
2022-09-28T01:02:32.426Z,100.00
2022-09-28T01:05:01.479Z,100.00
2022-09-28T01:07:29.276Z,98.35
2022-09-28T01:09:56.935Z,99.15
2022-09-28T01:12:24.413Z,100.00
2022-09-28T01:14:52.670Z,100.00
2022-09-28T01:17:30.245Z,100.00
2022-09-28T01:20:07.718Z,100.00
2022-09-28T01:23:09.388Z,100.00
2022-09-28T01:25:41.242Z,100.00
2022-09-28T01:28:15.306Z,100.00
2022-09-28T01:30:51.012Z,100.00
2022-09-28T01:33:30.909Z,100.00
2022-09-28T01:36:13.812Z,100.00
2022-09-28T01:38:47.357Z,100.00
2022-09-28T01:41:17.711Z,100.00
2022-09-28T01:43:54.719Z,100.00
2022-09-28T01:46:27.473Z,100.00
2022-09-28T01:48:58.136Z,100.00
2022-09-28T01:51:30.528Z,99.50
2022-09-28T01:54:06.481Z,100.00
2022-09-28T01:56:43.314Z,100.00
2022-09-28T01:59:20.407Z,100.00
2022-09-28T02:01:53.681Z,100.00
2022-09-28T02:04:26.824Z,100.00
2022-09-28T02:06:58.739Z,100.00
2022-09-28T02:09:36.193Z,100.00
2022-09-28T02:12:13.379Z,99.28
2022-09-28T02:14:43.877Z,100.00
2022-09-28T02:17:11.670Z,100.00
2022-09-28T02:19:39.953Z,100.00
2022-09-28T02:22:28.519Z,100.00
2022-09-28T02:24:59.818Z,99.64
2022-09-28T02:27:45.393Z,100.00
2022-09-28T02:30:13.600Z,100.00
2022-09-28T02:32:44.586Z,100.00
2022-09-28T02:35:17.326Z,100.00
2022-09-28T02:37:46.253Z,100.00
2022-09-28T02:40:19.065Z,100.00
2022-09-28T02:43:02.073Z,100.00
2022-09-28T02:45:51.736Z,100.00
2022-09-28T02:48:44.676Z,99.76
2022-09-28T02:51:38.347Z,100.00
2022-09-28T02:54:38.966Z,100.00
2022-09-28T02:57:27.705Z,100.00
2022-09-28T03:00:05.753Z,100.00
2022-09-28T03:02:54.898Z,100.00
2022-09-28T03:05:44.294Z,100.00
2022-09-28T03:08:38.205Z,100.00
2022-09-28T03:11:14.725Z,100.00
2022-09-28T03:13:42.962Z,100.00
2022-09-28T03:16:19.531Z,100.00
2022-09-28T03:18:49.221Z,100.00
2022-09-28T03:21:16.886Z,100.00
2022-09-28T03:23:44.225Z,100.00
2022-09-28T03:26:12.724Z,100.00
2022-09-28T03:28:40.597Z,100.00
2022-09-28T03:31:11.414Z,100.00
2022-09-28T03:33:38.665Z,100.00
2022-09-28T03:36:08.600Z,100.00
2022-09-28T03:38:36.660Z,100.00
2022-09-28T03:41:04.061Z,100.00
2022-09-28T03:43:35.601Z,100.00
2022-09-28T03:46:04.294Z,100.00
2022-09-28T03:48:36.308Z,100.00
2022-09-28T03:51:06.953Z,100.00
2022-09-28T03:53:34.278Z,100.00
2022-09-28T03:56:04.016Z,100.00
2022-09-28T03:58:32.605Z,100.00
2022-09-28T04:01:18.303Z,100.00
2022-09-28T04:03:47.938Z,100.00
2022-09-28T04:06:15.486Z,100.00
2022-09-28T04:08:43.351Z,100.00
2022-09-28T04:11:11.442Z,100.00
2022-09-28T04:13:39.102Z,100.00
2022-09-28T04:16:14.630Z,100.00
2022-09-28T04:18:51.348Z,100.00
2022-09-28T04:21:37.840Z,100.00
2022-09-28T04:24:11.315Z,100.00
2022-09-28T04:26:38.791Z,100.00
2022-09-28T04:29:19.411Z,100.00
2022-09-28T04:31:55.229Z,100.00
2022-09-28T04:34:41.840Z,100.00
2022-09-28T04:37:11.612Z,100.00
2022-09-28T04:39:42.248Z,100.00
2022-09-28T04:42:13.660Z,100.00
2022-09-28T04:44:43.747Z,100.00
2022-09-28T04:47:10.992Z,100.00
2022-09-28T04:49:56.815Z,100.00
2022-09-28T04:52:31.854Z,100.00
2022-09-28T04:54:59.191Z,100.00
2022-09-28T04:57:27.342Z,100.00
2022-09-28T04:59:55.229Z,100.00
2022-09-28T05:02:22.636Z,100.00
2022-09-28T05:05:13.156Z,100.00
2022-09-28T05:08:09.419Z,100.00
2022-09-28T05:10:40.284Z,100.00
2022-09-28T05:13:09.151Z,100.00
2022-09-28T05:15:38.631Z,100.00
2022-09-28T05:18:07.162Z,100.00
2022-09-28T05:20:46.127Z,100.00
2022-09-28T05:23:15.390Z,100.00
2022-09-28T05:25:45.301Z,100.00
2022-09-28T05:28:28.074Z,100.00
2022-09-28T05:31:15.744Z,100.00
2022-09-28T05:34:12.572Z,100.00
2022-09-28T05:36:42.652Z,100.00
2022-09-28T05:39:09.958Z,100.00
2022-09-28T05:41:37.254Z,100.00
2022-09-28T05:44:05.504Z,100.00
2022-09-28T05:46:32.755Z,100.00
2022-09-28T05:49:01.872Z,100.00
2022-09-28T05:51:29.285Z,100.00
2022-09-28T05:54:00.724Z,100.00
2022-09-28T05:56:31.519Z,100.00
2022-09-28T05:58:58.930Z,100.00
2022-09-28T06:01:29.802Z,100.00
2022-09-28T06:04:02.288Z,100.00
2022-09-28T06:06:30.222Z,100.00
2022-09-28T06:08:57.449Z,100.00
2022-09-28T06:11:44.967Z,100.00
2022-09-28T06:14:23.928Z,100.00
2022-09-28T06:16:53.966Z,100.00
2022-09-28T06:19:21.826Z,100.00
2022-09-28T06:22:07.991Z,100.00
2022-09-28T06:24:43.772Z,100.00
2022-09-28T06:27:11.083Z,100.00
2022-09-28T06:29:38.317Z,100.00
2022-09-28T06:32:07.349Z,100.00
2022-09-28T06:34:36.039Z,100.00
2022-09-28T06:37:04.592Z,100.00
2022-09-28T06:39:32.296Z,99.89
2022-09-28T06:42:03.224Z,99.14
2022-09-28T06:44:50.635Z,96.93
2022-09-28T06:47:38.201Z,96.82
2022-09-28T06:50:17.270Z,95.13
2022-09-28T06:53:06.942Z,96.01
2022-09-28T06:55:57.417Z,94.08
2022-09-28T06:58:27.541Z,92.67
2022-09-28T07:01:00.504Z,91.48
2022-09-28T07:03:33.185Z,91.74
2022-09-28T07:06:21.089Z,90.94
2022-09-28T07:09:24.067Z,92.10
2022-09-28T07:12:13.459Z,90.26
2022-09-28T07:15:04.979Z,90.05
2022-09-28T07:17:39.347Z,89.80
2022-09-28T07:20:18.850Z,90.79
2022-09-28T07:22:48.316Z,88.99
2022-09-28T07:25:20.354Z,80.55
2022-09-28T07:28:02.630Z,79.13
2022-09-28T07:30:57.895Z,79.58
2022-09-28T07:33:45.771Z,76.34
2022-09-28T07:36:20.867Z,75.60
2022-09-28T07:38:48.522Z,72.10
2022-09-28T07:41:22.093Z,70.90
2022-09-28T07:43:52.010Z,71.15
2022-09-28T07:46:21.305Z,70.32
2022-09-28T07:48:56.191Z,69.31
2022-09-28T07:51:35.084Z,70.93
2022-09-28T07:54:21.028Z,70.82
2022-09-28T07:57:07.020Z,69.38
2022-09-28T07:59:53.681Z,68.42
2022-09-28T08:02:41.346Z,68.26
2022-09-28T08:05:10.655Z,68.96
2022-09-28T08:07:38.301Z,68.32
2022-09-28T08:10:09.045Z,65.91
2022-09-28T08:12:59.152Z,64.11
2022-09-28T08:15:40.192Z,65.75
2022-09-28T08:18:16.911Z,63.86
2022-09-28T08:21:03.868Z,63.72
2022-09-28T08:23:31.831Z,63.72
2022-09-28T08:25:59.502Z,63.33
2022-09-28T08:28:27.588Z,61.68
2022-09-28T08:31:01.606Z,61.26
2022-09-28T08:33:31.824Z,60.88
2022-09-28T08:36:34.418Z,61.13
2022-09-28T08:39:02.541Z,60.52
2022-09-28T08:42:02.226Z,59.91
2022-09-28T08:44:52.314Z,60.57
2022-09-28T08:48:45.685Z,59.48
2022-09-28T08:51:45.730Z,57.61
2022-09-28T08:54:41.128Z,57.35
2022-09-28T08:57:33.889Z,57.34
2022-09-28T09:00:05.361Z,56.25
2022-09-28T09:02:39.701Z,55.52
2022-09-28T09:05:24.183Z,55.87
2022-09-28T09:08:14.239Z,54.91
2022-09-28T09:10:50.572Z,54.44
2022-09-28T09:13:46.478Z,56.30
2022-09-28T09:16:42.099Z,54.11
2022-09-28T09:20:05.089Z,53.40
2022-09-28T09:23:04.322Z,51.77
2022-09-28T09:25:42.342Z,51.74
2022-09-28T09:28:50.336Z,52.37
2022-09-28T09:31:43.095Z,51.03
2022-09-28T09:34:43.813Z,52.01
2022-09-28T09:38:22.005Z,50.75
2022-09-28T09:41:27.965Z,50.27
2022-09-28T09:44:13.969Z,51.21
2022-09-28T09:47:13.056Z,51.31
2022-09-28T09:50:11.291Z,52.01
2022-09-28T09:53:02.641Z,51.81
2022-09-28T09:55:36.389Z,51.95
2022-09-28T09:58:34.699Z,52.43
2022-09-28T10:01:35.674Z,52.30
2022-09-28T10:04:32.028Z,50.79
2022-09-28T10:07:06.873Z,50.61
2022-09-28T10:09:41.194Z,49.97
2022-09-28T10:12:24.432Z,50.56
2022-09-28T10:14:53.074Z,51.20
2022-09-28T10:17:26.717Z,49.67
2022-09-28T10:20:37.012Z,50.54
2022-09-28T10:23:27.083Z,48.85
2022-09-28T10:26:00.552Z,49.00
2022-09-28T10:28:51.917Z,49.24
2022-09-28T10:31:46.497Z,49.43
2022-09-28T10:34:27.790Z,48.93
2022-09-28T10:37:05.484Z,47.71
2022-09-28T10:39:55.912Z,48.57
2022-09-28T10:42:31.636Z,47.38
2022-09-28T10:45:23.842Z,48.15
2022-09-28T10:47:51.240Z,47.73
2022-09-28T10:50:28.402Z,47.95
2022-09-28T10:53:20.780Z,48.00
2022-09-28T10:56:22.715Z,47.75
2022-09-28T10:58:59.085Z,47.31
2022-09-28T11:01:41.758Z,48.02
2022-09-28T11:04:21.670Z,47.23
2022-09-28T11:06:50.132Z,47.26
2022-09-28T11:09:32.530Z,46.78
2022-09-28T11:12:14.222Z,48.03
2022-09-28T11:14:46.729Z,47.77
2022-09-28T11:17:25.856Z,47.30
2022-09-28T11:19:54.911Z,47.64
2022-09-28T11:22:26.179Z,47.43
2022-09-28T11:25:22.022Z,47.41
2022-09-28T11:27:52.440Z,48.29
2022-09-28T11:30:25.797Z,48.02
2022-09-28T11:33:22.613Z,48.70
2022-09-28T11:36:19.004Z,48.80
2022-09-28T11:39:01.437Z,49.62
2022-09-28T11:41:54.328Z,49.21
2022-09-28T11:44:41.408Z,48.85
2022-09-28T11:47:40.194Z,48.63
2022-09-28T11:50:41.601Z,48.42
2022-09-28T11:53:36.037Z,50.04
2022-09-28T11:56:18.810Z,49.67
2022-09-28T11:58:50.861Z,48.61
2022-09-28T12:01:35.539Z,48.65
2022-09-28T12:04:38.075Z,49.67
2022-09-28T12:07:19.300Z,47.89
2022-09-28T12:10:00.950Z,48.42
2022-09-28T12:12:37.234Z,49.07
2022-09-28T12:15:19.805Z,48.03
2022-09-28T12:17:52.734Z,48.24
2022-09-28T12:20:27.372Z,49.30
2022-09-28T12:23:11.515Z,49.07
2022-09-28T12:25:49.288Z,48.09
2022-09-28T12:28:42.117Z,47.36
2022-09-28T12:31:21.474Z,47.39
2022-09-28T12:33:51.938Z,48.38
2022-09-28T12:37:03.658Z,48.41
2022-09-28T12:39:58.424Z,48.83
2022-09-28T12:42:39.148Z,49.05
2022-09-28T12:45:06.362Z,49.29
2022-09-28T12:48:01.119Z,49.00
2022-09-28T12:51:00.143Z,49.35
2022-09-28T12:54:04.041Z,50.92
2022-09-28T12:56:41.558Z,49.96
2022-09-28T12:59:20.936Z,51.41
2022-09-28T13:02:00.373Z,51.22
2022-09-28T13:04:45.574Z,51.21
2022-09-28T13:07:29.735Z,51.11
2022-09-28T13:10:16.697Z,50.73
2022-09-28T13:13:12.646Z,51.71
2022-09-28T13:15:43.337Z,52.22
2022-09-28T13:18:27.217Z,51.86
2022-09-28T13:21:17.613Z,53.02
2022-09-28T13:23:47.554Z,51.94
2022-09-28T13:26:37.086Z,51.64
2022-09-28T13:29:14.595Z,52.75
2022-09-28T13:31:49.476Z,52.13
2022-09-28T13:34:22.387Z,52.01
2022-09-28T13:37:07.720Z,52.31
2022-09-28T13:39:51.077Z,51.66
2022-09-28T13:42:35.929Z,53.07
2022-09-28T13:45:21.960Z,52.44
2022-09-28T13:47:56.020Z,51.99
2022-09-28T13:51:04.974Z,52.38
2022-09-28T13:54:04.368Z,51.34
2022-09-28T13:56:48.271Z,51.53
2022-09-28T13:59:27.742Z,52.71
2022-09-28T14:02:17.586Z,52.12
2022-09-28T14:04:57.771Z,52.82
2022-09-28T14:10:20.867Z,52.30
2022-09-28T14:12:53.000Z,52.14
2022-09-28T14:15:29.608Z,51.99
2022-09-28T14:18:20.755Z,52.58
2022-09-28T14:21:05.519Z,52.38
2022-09-28T14:24:11.161Z,52.45
2022-09-28T14:27:00.426Z,53.75
2022-09-28T14:29:34.505Z,52.26
2022-09-28T14:32:07.889Z,52.52
2022-09-28T14:34:46.633Z,52.14
2022-09-28T14:37:46.493Z,52.11
2022-09-28T14:40:48.693Z,52.69
2022-09-28T14:43:33.670Z,52.72
2022-09-28T14:46:10.878Z,51.63
2022-09-28T14:48:54.841Z,51.38
2022-09-28T14:51:25.411Z,52.73
2022-09-28T14:53:54.731Z,52.58
2022-09-28T14:56:22.104Z,52.73
2022-09-28T14:58:56.244Z,52.70
2022-09-28T15:01:25.098Z,52.30
2022-09-28T15:03:56.522Z,52.78
2022-09-28T15:06:24.969Z,52.97
2022-09-28T15:08:52.829Z,53.49
2022-09-28T15:11:23.395Z,53.25
2022-09-28T15:14:04.392Z,52.71
2022-09-28T15:16:32.360Z,53.69
2022-09-28T15:19:25.259Z,54.52
2022-09-28T15:21:52.880Z,55.02
2022-09-28T15:24:34.634Z,54.63
2022-09-28T15:27:15.375Z,53.90
2022-09-28T15:29:57.245Z,53.99
2022-09-28T15:32:26.124Z,54.18
2022-09-28T15:34:54.674Z,53.94
2022-09-28T15:37:26.286Z,54.08
2022-09-28T15:39:55.770Z,54.35
2022-09-28T15:42:23.103Z,54.42
2022-09-28T15:45:13.742Z,54.31
2022-09-28T15:47:44.858Z,53.96
2022-09-28T15:50:33.177Z,54.84
2022-09-28T15:53:04.518Z,54.31
2022-09-28T15:55:39.823Z,54.76
2022-09-28T15:58:22.648Z,54.65
2022-09-28T16:01:12.001Z,54.40
2022-09-28T16:03:39.610Z,54.69
2022-09-28T16:06:09.448Z,55.00
2022-09-28T16:08:38.545Z,55.88
2022-09-28T16:11:35.585Z,56.02
2022-09-28T16:14:08.835Z,55.94
2022-09-28T16:16:47.494Z,55.82
2022-09-28T16:19:37.844Z,56.26
2022-09-28T16:22:18.722Z,56.62
2022-09-28T16:24:55.790Z,57.05
2022-09-28T16:27:28.273Z,58.19
2022-09-28T16:30:21.717Z,58.48
2022-09-28T16:32:53.462Z,58.01
2022-09-28T16:35:27.179Z,58.34
2022-09-28T16:38:00.905Z,60.97
2022-09-28T16:40:29.123Z,60.64
2022-09-28T16:43:00.108Z,59.73
2022-09-28T16:45:28.467Z,60.37
2022-09-28T16:47:57.419Z,59.79
2022-09-28T16:50:25.844Z,60.43
2022-09-28T16:53:19.126Z,60.54
2022-09-28T16:55:48.517Z,61.36
2022-09-28T16:58:15.997Z,60.78
2022-09-28T17:00:43.458Z,62.01
2022-09-28T17:03:18.453Z,63.89
2022-09-28T17:05:47.946Z,62.35
2022-09-28T17:08:19.842Z,61.87
2022-09-28T17:13:45.138Z,63.44
2022-09-28T17:16:14.393Z,62.70
2022-09-28T17:19:33.643Z,63.03
2022-09-28T17:22:00.861Z,63.24
2022-09-28T17:24:28.102Z,64.09
2022-09-28T17:26:55.793Z,64.58
2022-09-28T17:29:23.775Z,64.02
2022-09-28T17:31:51.201Z,66.51
2022-09-28T17:34:19.990Z,67.45
2022-09-28T17:36:47.435Z,68.77
2022-09-28T17:39:17.691Z,70.80
2022-09-28T17:41:48.678Z,71.17
2022-09-28T17:44:21.416Z,72.23
2022-09-28T17:46:51.264Z,72.21
2022-09-28T17:49:20.336Z,74.13
2022-09-28T17:51:53.192Z,75.73
2022-09-28T17:54:22.826Z,75.91
2022-09-28T17:56:50.704Z,77.33
2022-09-28T17:59:26.622Z,77.50
2022-09-28T18:02:00.410Z,78.82
2022-09-28T18:04:51.353Z,79.21
2022-09-28T18:07:20.036Z,79.01
2022-09-28T18:09:48.226Z,77.63
2022-09-28T18:12:33.503Z,79.25
2022-09-28T18:15:01.690Z,78.88
2022-09-28T18:17:29.557Z,79.87
2022-09-28T18:20:01.633Z,80.11
2022-09-28T18:22:29.560Z,80.66
2022-09-28T18:24:56.999Z,80.83
2022-09-28T18:27:27.557Z,79.73
2022-09-28T18:30:02.511Z,79.86
2022-09-28T18:32:32.094Z,79.27
2022-09-28T18:35:03.216Z,79.07
2022-09-28T18:37:40.915Z,78.87
2022-09-28T18:40:16.120Z,78.99
2022-09-28T18:45:42.948Z,78.90
2022-09-28T18:51:26.222Z,80.15
2022-09-28T18:58:58.355Z,81.58
2022-09-28T19:01:47.339Z,81.93
2022-09-28T19:04:25.857Z,82.37
2022-09-28T19:06:54.558Z,83.38
2022-09-28T19:09:24.769Z,84.95
2022-09-28T19:16:29.026Z,85.19
2022-09-28T19:19:15.127Z,86.15
2022-09-28T19:22:40.208Z,87.34
2022-09-28T19:25:12.226Z,87.09
2022-09-28T19:28:39.494Z,86.69
2022-09-28T19:43:27.579Z,86.21
2022-09-28T19:45:56.212Z,87.10
2022-09-28T19:48:30.333Z,86.54
2022-09-28T19:51:05.783Z,86.51
2022-09-28T19:57:11.780Z,86.52
2022-09-28T20:13:45.249Z,86.60
2022-09-28T20:16:17.585Z,88.05
2022-09-28T20:18:52.027Z,88.19
2022-09-28T20:21:25.959Z,89.13
2022-09-28T20:23:56.271Z,88.65
2022-09-28T20:26:29.024Z,88.59
2022-09-28T20:29:02.052Z,88.90
2022-09-28T20:31:32.384Z,89.99
2022-09-28T20:34:02.586Z,90.55
2022-09-28T20:36:35.263Z,90.15
2022-09-28T20:39:06.529Z,89.73
2022-09-28T20:44:37.615Z,89.96
2022-09-28T20:49:55.737Z,90.48
2022-09-28T20:52:27.248Z,90.34
2022-09-28T20:55:05.923Z,90.44
2022-09-28T20:57:40.645Z,89.55
2022-09-28T21:00:23.199Z,90.54
2022-09-28T21:02:59.423Z,90.67
2022-09-28T21:05:36.679Z,89.79
2022-09-28T21:08:08.911Z,89.76
2022-09-28T21:10:37.484Z,89.56
2022-09-28T21:13:06.399Z,90.96
2022-09-28T21:15:42.860Z,90.34
2022-09-28T21:18:14.010Z,90.86
2022-09-28T21:20:51.790Z,90.82
2022-09-28T21:23:24.753Z,91.86
2022-09-28T21:26:09.589Z,89.55
2022-09-28T21:28:39.409Z,89.71
2022-09-28T21:31:11.440Z,90.41
2022-09-28T21:33:39.119Z,90.83
2022-09-28T21:36:10.095Z,91.18
2022-09-28T21:38:42.980Z,90.06
2022-09-28T21:41:11.626Z,90.76
2022-09-28T21:43:41.764Z,91.06
2022-09-28T21:46:11.710Z,90.89
2022-09-28T21:48:39.751Z,90.58
2022-09-28T21:51:13.139Z,91.14
2022-09-28T21:53:43.479Z,90.03
2022-09-28T21:56:13.138Z,90.00
2022-09-28T21:58:41.692Z,88.50
2022-09-28T22:01:15.835Z,89.58
2022-09-28T22:03:47.131Z,88.57
2022-09-28T22:06:18.772Z,89.30
2022-09-28T22:08:47.975Z,87.97
2022-09-28T22:11:17.592Z,88.84
2022-09-28T22:13:47.343Z,87.33
2022-09-28T22:16:18.643Z,88.38
2022-09-28T22:18:48.802Z,88.50
2022-09-28T22:21:22.795Z,89.17
2022-09-28T22:23:53.601Z,89.54
2022-09-28T22:26:27.238Z,89.86
2022-09-28T22:29:04.781Z,88.42
2022-09-28T22:31:39.815Z,90.69
2022-09-28T22:34:10.874Z,89.35
2022-09-28T22:36:42.580Z,89.63
2022-09-28T22:39:16.680Z,89.45
2022-09-28T22:47:45.715Z,89.38
2022-09-28T22:50:17.467Z,90.94
2022-09-28T22:52:51.086Z,90.87
2022-09-28T22:55:25.520Z,89.25
2022-09-28T22:57:58.664Z,88.88
2022-09-28T23:00:29.021Z,88.95
2022-09-28T23:03:01.313Z,90.27
2022-09-28T23:05:31.169Z,89.48
2022-09-28T23:08:00.555Z,90.31
2022-09-28T23:10:30.349Z,90.22
2022-09-28T23:13:01.382Z,90.68
2022-09-28T23:15:38.587Z,90.01
2022-09-28T23:18:11.649Z,90.40
2022-09-28T23:20:41.520Z,91.44
2022-09-28T23:23:11.553Z,90.33
2022-09-28T23:32:01.625Z,91.70
2022-09-28T23:34:32.446Z,91.81
2022-09-28T23:37:05.391Z,91.89
2022-09-28T23:39:36.270Z,91.98
2022-09-28T23:42:09.608Z,92.09
2022-09-28T23:44:39.136Z,92.58
2022-09-28T23:47:11.709Z,92.91
2022-09-28T23:49:39.951Z,92.95
2022-09-28T23:52:08.343Z,92.58
2022-09-28T23:54:36.501Z,92.31
2022-09-28T23:57:05.683Z,92.38
2022-09-28T23:59:33.947Z,92.43
